Vandalia, Ohio
Current Conditions -  °F | °C
As of 7:56 PM on Monday 24 Nov 2014 (Local Time) from KDAY Reporting Station
Broken Clouds Broken Clouds  
Wind Chill: 29°   Ceiling: 4100
Heat Index: 40°   Visibility: 10mi
Dew Point: 28°   Wind: 25mph
Humidity: 63%   Direction: 250°WSW
Pressure: 29.81"   Gusts: 35mph
Location:  39.89°N, 84.19°W
Report Text: KDAY 250056Z 25022G30KT 10SM BKN041 04/M02 A2981 RMK AO2 PK WND 25030/0045 SLP094 T00441022
Loading
Personal Weather Stations






























Interactive Weather Map New forecast layout! Learn more

10-Day Weather Forecast

Advertisements
Track Severe Weather on mobile